Time;durP1;ratioP1;P1;durP2;ratioP2;P2;SDS_P1;SDS_P2;PMS_P1;PMS_P2;Temp;Humidity;BMP_temperature;BMP_pressure;BME280_temperature;BME280_humidity;BME280_pressure;Samples;Min_cycle;Max_cycle;Signal;HPM_P1;HPM_P2
2022/10/17 00:01:53;;;;;;;17.20;15.47;;;;;;;;;;5012877;28;20045;-61
2022/10/17 00:04:18;;;;;;;17.60;16.00;;;;;;;;;;5013678;28;20022;-61
2022/10/17 00:06:43;;;;;;;16.23;14.55;;;;;;;;;;5012447;28;20476;-60
2022/10/17 00:09:08;;;;;;;17.10;15.37;;;;;;;;;;5014361;28;20027;-60
2022/10/17 00:11:33;;;;;;;17.50;15.53;;;;;;;;;;5011879;28;20460;-61
2022/10/17 00:13:59;;;;;;;18.17;15.70;;;;;;;;;;5014086;28;20832;-61
2022/10/17 00:16:32;;;;;;;19.63;16.20;;;;;;;;;;5012846;28;20494;-60
2022/10/17 00:18:57;;;;;;;18.63;16.17;;;;;;;;;;5014073;28;20029;-62
2022/10/17 00:21:23;;;;;;;20.08;17.33;;;;;;;;;;5013803;28;20104;-62
2022/10/17 00:23:48;;;;;;;24.98;17.80;;;;;;;;;;5012629;28;20038;-62
2022/10/17 00:26:14;;;;;;;20.20;18.20;;;;;;;;;;5013907;28;20014;-62
2022/10/17 00:28:39;;;;;;;17.65;15.68;;;;;;;;;;5011853;28;20895;-62
2022/10/17 00:31:05;;;;;;;17.23;15.40;;;;;;;;;;5013741;28;20038;-62
2022/10/17 00:33:31;;;;;;;25.00;19.30;;;;;;;;;;5011471;28;20066;-62
2022/10/17 00:36:02;;;;;;;19.25;17.25;;;;;;;;;;5013100;28;20081;-62
2022/10/17 00:38:27;;;;;;;20.90;18.63;;;;;;;;;;5011758;28;20030;-62
2022/10/17 00:40:52;;;;;;;20.70;17.13;;;;;;;;;;5013320;28;20018;-62
2022/10/17 00:43:17;;;;;;;20.48;17.27;;;;;;;;;;5012049;28;20129;-62
2022/10/17 00:45:43;;;;;;;26.30;19.27;;;;;;;;;;5013403;28;20461;-62
2022/10/17 00:48:09;;;;;;;22.88;18.42;;;;;;;;;;5011854;28;20037;-62
2022/10/17 00:50:35;;;;;;;20.80;17.38;;;;;;;;;;5013622;28;20017;-62
2022/10/17 00:53:01;;;;;;;19.30;17.35;;;;;;;;;;5011707;28;20041;-62
2022/10/17 00:55:29;;;;;;;23.45;19.42;;;;;;;;;;5012616;28;20033;-62
2022/10/17 00:57:55;;;;;;;23.63;17.90;;;;;;;;;;5011406;28;20041;-62
2022/10/17 01:00:20;;;;;;;20.48;18.08;;;;;;;;;;5012960;28;20030;-62
2022/10/17 01:02:46;;;;;;;22.35;18.63;;;;;;;;;;5011809;28;20057;-62
2022/10/17 01:05:11;;;;;;;26.15;19.35;;;;;;;;;;5013382;28;20021;-63
2022/10/17 01:07:38;;;;;;;25.35;18.30;;;;;;;;;;5010781;28;20121;-62
2022/10/17 01:10:04;;;;;;;24.73;19.15;;;;;;;;;;5013162;28;20083;-62
2022/10/17 01:12:51;;;;;;;23.10;19.30;;;;;;;;;;5011063;28;20499;-61
2022/10/17 01:15:23;;;;;;;20.92;18.60;;;;;;;;;;5013055;28;20069;-61
2022/10/17 01:17:48;;;;;;;20.17;17.00;;;;;;;;;;5011302;28;20044;-62
2022/10/17 01:20:25;;;;;;;23.00;17.67;;;;;;;;;;5012816;28;20022;-62
2022/10/17 01:23:09;;;;;;;23.88;21.27;;;;;;;;;;5011251;28;20029;-65
2022/10/17 01:26:04;;;;;;;22.05;18.27;;;;;;;;;;5010600;28;20022;-62
2022/10/17 01:28:41;;;;;;;26.65;19.38;;;;;;;;;;5010366;28;20525;-63
2022/10/17 01:31:09;;;;;;;24.30;20.02;;;;;;;;;;5012677;28;20034;-63
2022/10/17 01:33:55;;;;;;;28.13;19.05;;;;;;;;;;5010756;28;20570;-63
2022/10/17 01:36:20;;;;;;;24.77;20.65;;;;;;;;;;5011890;28;20281;-63
2022/10/17 01:38:51;;;;;;;21.77;19.42;;;;;;;;;;5011370;28;20136;-63
2022/10/17 01:41:24;;;;;;;26.33;19.77;;;;;;;;;;5012099;28;20025;-62
2022/10/17 01:43:50;;;;;;;25.15;19.83;;;;;;;;;;5011007;28;20041;-63
2022/10/17 01:46:17;;;;;;;23.63;19.25;;;;;;;;;;5012550;28;20089;-62
2022/10/17 01:48:44;;;;;;;19.02;16.42;;;;;;;;;;5009865;28;20069;-63
2022/10/17 01:51:15;;;;;;;21.40;18.83;;;;;;;;;;5012855;28;20425;-63
2022/10/17 01:53:44;;;;;;;21.77;19.17;;;;;;;;;;5010448;28;20042;-63
2022/10/17 01:56:11;;;;;;;22.17;17.80;;;;;;;;;;5011485;28;20026;-63
2022/10/17 01:58:43;;;;;;;21.10;17.50;;;;;;;;;;5010424;28;20065;-63
2022/10/17 02:01:09;;;;;;;23.80;17.33;;;;;;;;;;5012230;28;20439;-63
2022/10/17 02:03:34;;;;;;;22.40;17.67;;;;;;;;;;5009851;28;20099;-63
2022/10/17 02:06:00;;;;;;;22.40;16.50;;;;;;;;;;5011949;28;20026;-63
2022/10/17 02:08:40;;;;;;;24.67;17.60;;;;;;;;;;5026587;28;20045;-63
2022/10/17 02:11:09;;;;;;;19.48;17.42;;;;;;;;;;5031341;28;20059;-63
2022/10/17 02:13:40;;;;;;;19.90;16.42;;;;;;;;;;5029661;28;20045;-63
2022/10/17 02:16:06;;;;;;;21.25;17.55;;;;;;;;;;5031534;28;20036;-62
2022/10/17 02:18:49;;;;;;;22.15;16.25;;;;;;;;;;5029358;28;20042;-63
2022/10/17 02:21:14;;;;;;;26.40;18.73;;;;;;;;;;5031656;28;20539;-63
2022/10/17 02:23:50;;;;;;;22.23;16.33;;;;;;;;;;5030013;28;20694;-63
2022/10/17 02:26:15;;;;;;;20.17;16.73;;;;;;;;;;5030715;28;20025;-63
2022/10/17 02:28:51;;;;;;;24.23;16.92;;;;;;;;;;5029453;28;20041;-62
2022/10/17 02:31:21;;;;;;;19.48;17.17;;;;;;;;;;5031575;28;20488;-62
2022/10/17 02:33:53;;;;;;;21.65;16.90;;;;;;;;;;5029700;28;20064;-62
2022/10/17 02:36:20;;;;;;;20.27;18.17;;;;;;;;;;5031330;28;20041;-61
2022/10/17 02:38:47;;;;;;;21.15;17.02;;;;;;;;;;5029990;28;20041;-61
2022/10/17 02:41:15;;;;;;;23.92;18.20;;;;;;;;;;5030588;28;20017;-62
2022/10/17 02:43:44;;;;;;;24.00;17.80;;;;;;;;;;5029149;28;20046;-62
2022/10/17 02:46:09;;;;;;;19.30;16.85;;;;;;;;;;5031471;28;20026;-62
2022/10/17 02:48:41;;;;;;;22.25;18.60;;;;;;;;;;5011265;28;20034;-62
2022/10/17 02:51:10;;;;;;;32.30;19.30;;;;;;;;;;5011589;28;20481;-63
2022/10/17 02:53:41;;;;;;;20.25;16.95;;;;;;;;;;5009635;28;20046;-62
2022/10/17 02:56:09;;;;;;;20.17;17.05;;;;;;;;;;5010814;28;20501;-62
2022/10/17 02:58:35;;;;;;;19.27;16.55;;;;;;;;;;5009823;28;20042;-62
2022/10/17 03:01:00;;;;;;;18.80;15.52;;;;;;;;;;5011293;28;20064;-61
2022/10/17 03:03:26;;;;;;;31.63;19.15;;;;;;;;;;5009273;28;20074;-61
2022/10/17 03:05:52;;;;;;;22.45;15.18;;;;;;;;;;5011369;28;20022;-61
2022/10/17 03:08:17;;;;;;;16.25;14.40;;;;;;;;;;5008977;28;20048;-61
2022/10/17 03:10:43;;;;;;;25.30;15.25;;;;;;;;;;5010365;28;20388;-61
2022/10/17 03:13:08;;;;;;;20.97;14.63;;;;;;;;;;5009820;28;20042;-62
2022/10/17 03:15:33;;;;;;;18.65;14.70;;;;;;;;;;5010898;28;20428;-60
2022/10/17 03:17:58;;;;;;;18.30;16.40;;;;;;;;;;5009467;28;20126;-61
2022/10/17 03:20:24;;;;;;;17.07;15.33;;;;;;;;;;5011095;28;20362;-61
2022/10/17 03:22:49;;;;;;;25.53;14.87;;;;;;;;;;5009434;28;20448;-61
2022/10/17 03:25:14;;;;;;;15.63;14.02;;;;;;;;;;5010469;28;20144;-61
2022/10/17 03:27:39;;;;;;;23.67;15.30;;;;;;;;;;5009580;28;20049;-61
2022/10/17 03:30:05;;;;;;;17.08;15.30;;;;;;;;;;5011082;28;20388;-61
2022/10/17 03:32:32;;;;;;;18.20;14.45;;;;;;;;;;5012044;28;20041;-61
2022/10/17 03:34:57;;;;;;;20.83;14.50;;;;;;;;;;5014222;28;20041;-61
2022/10/17 03:37:22;;;;;;;16.45;14.52;;;;;;;;;;5013458;28;20409;-61
2022/10/17 03:39:47;;;;;;;15.18;13.60;;;;;;;;;;5014160;28;20026;-63
2022/10/17 03:42:12;;;;;;;16.95;14.98;;;;;;;;;;5013322;28;20038;-62
2022/10/17 03:44:37;;;;;;;18.00;14.95;;;;;;;;;;5014494;28;20223;-63
2022/10/17 03:47:02;;;;;;;20.70;16.30;;;;;;;;;;5013174;28;20088;-63
2022/10/17 03:49:28;;;;;;;17.98;15.05;;;;;;;;;;5013728;28;20464;-63
2022/10/17 03:51:53;;;;;;;21.08;14.45;;;;;;;;;;5012800;28;20037;-63
2022/10/17 03:54:18;;;;;;;19.98;14.23;;;;;;;;;;5014283;28;20021;-63
2022/10/17 03:56:43;;;;;;;21.13;14.23;;;;;;;;;;5012689;28;20469;-64
2022/10/17 03:59:12;;;;;;;19.35;14.80;;;;;;;;;;5014204;28;20072;-63
2022/10/17 04:01:37;;;;;;;;;;;;;;;;;;5012908;28;20374;-63
2022/10/17 04:04:02;;;;;;;15.50;13.80;;;;;;;;;;5014678;28;20280;-63
2022/10/17 04:06:27;;;;;;;19.30;14.07;;;;;;;;;;5012415;28;20743;-63
2022/10/17 04:08:52;;;;;;;19.07;13.83;;;;;;;;;;5013917;28;20021;-63
2022/10/17 04:11:19;;;;;;;17.83;15.80;;;;;;;;;;5014447;28;20625;-63
2022/10/17 04:13:44;;;;;;;18.27;15.88;;;;;;;;;;5012194;28;20108;-63
2022/10/17 04:16:12;;;;;;;23.55;14.35;;;;;;;;;;5013663;28;20465;-64
2022/10/17 04:18:37;;;;;;;27.07;15.60;;;;;;;;;;5012213;28;20045;-63
2022/10/17 04:21:03;;;;;;;20.43;14.13;;;;;;;;;;5013718;28;20105;-63
2022/10/17 04:23:28;;;;;;;15.98;13.40;;;;;;;;;;5011579;28;20481;-63
2022/10/17 04:25:58;;;;;;;21.83;14.60;;;;;;;;;;5014142;28;20014;-62
2022/10/17 04:28:23;;;;;;;15.50;13.88;;;;;;;;;;5011952;28;20991;-61
2022/10/17 04:30:56;;;;;;;18.88;14.82;;;;;;;;;;5013939;28;20032;-61
2022/10/17 04:33:21;;;;;;;17.58;13.88;;;;;;;;;;5011867;28;20099;-61
2022/10/17 04:35:53;;;;;;;21.75;14.52;;;;;;;;;;5013355;28;20050;-61
2022/10/17 04:38:19;;;;;;;16.20;14.50;;;;;;;;;;5012114;28;20034;-61
2022/10/17 04:40:44;;;;;;;37.53;16.05;;;;;;;;;;5013599;28;20033;-61
2022/10/17 04:43:09;;;;;;;23.58;15.80;;;;;;;;;;5009809;28;20402;-60
2022/10/17 04:45:34;;;;;;;17.88;15.27;;;;;;;;;;5012979;28;20080;-60
2022/10/17 04:47:59;;;;;;;18.02;13.18;;;;;;;;;;5011772;28;20029;-61
2022/10/17 04:50:24;;;;;;;16.48;14.80;;;;;;;;;;5013106;28;20362;-60
2022/10/17 04:52:49;;;;;;;14.83;12.87;;;;;;;;;;5011843;28;20042;-61
2022/10/17 04:55:15;;;;;;;17.25;13.75;;;;;;;;;;5013477;28;20369;-60
2022/10/17 04:57:40;;;;;;;25.40;15.40;;;;;;;;;;5011184;28;20049;-61
2022/10/17 05:00:05;;;;;;;14.68;12.82;;;;;;;;;;5012946;28;20781;-61
2022/10/17 05:02:30;;;;;;;18.73;14.65;;;;;;;;;;5011433;28;20065;-59
2022/10/17 05:04:56;;;;;;;16.35;14.73;;;;;;;;;;5013354;28;20050;-61
2022/10/17 05:07:21;;;;;;;16.83;13.27;;;;;;;;;;5011212;28;20043;-61
2022/10/17 05:09:46;;;;;;;18.30;11.88;;;;;;;;;;5013333;28;20414;-61
2022/10/17 05:12:11;;;;;;;16.20;12.70;;;;;;;;;;5011550;28;20042;-60
2022/10/17 05:14:36;;;;;;;24.73;14.32;;;;;;;;;;5012411;28;20014;-61
2022/10/17 05:17:01;;;;;;;22.05;13.30;;;;;;;;;;5011603;28;20397;-61
2022/10/17 05:19:26;;;;;;;19.00;13.43;;;;;;;;;;5012496;28;20025;-62
2022/10/17 05:21:52;;;;;;;14.27;12.93;;;;;;;;;;5011048;28;20413;-63
2022/10/17 05:24:17;;;;;;;17.43;11.17;;;;;;;;;;5013020;28;20028;-63
2022/10/17 05:26:42;;;;;;;16.85;13.05;;;;;;;;;;5011343;28;20058;-61
2022/10/17 05:29:07;;;;;;;14.13;12.68;;;;;;;;;;5012516;28;20076;-61
2022/10/17 05:31:32;;;;;;;13.50;11.63;;;;;;;;;;5009543;28;20099;-62
2022/10/17 05:34:01;;;;;;;21.97;13.13;;;;;;;;;;5012047;28;20521;-62
2022/10/17 05:36:27;;;;;;;14.57;12.05;;;;;;;;;;5010993;28;20543;-62
2022/10/17 05:38:52;;;;;;;13.77;11.45;;;;;;;;;;5012398;28;20010;-62
2022/10/17 05:41:17;;;;;;;15.27;13.67;;;;;;;;;;5012246;28;20149;-62
2022/10/17 05:43:43;;;;;;;14.80;10.98;;;;;;;;;;5010978;28;20105;-61
2022/10/17 05:46:08;;;;;;;13.02;11.68;;;;;;;;;;5010964;28;20017;-60
2022/10/17 05:48:33;;;;;;;12.98;11.45;;;;;;;;;;5006918;28;20061;-60
2022/10/17 05:51:00;;;;;;;16.58;10.05;;;;;;;;;;5010894;28;20026;-61
2022/10/17 05:53:28;;;;;;;12.82;11.18;;;;;;;;;;5009216;28;20041;-60
2022/10/17 05:55:54;;;;;;;17.27;13.00;;;;;;;;;;5009277;28;20101;-61
2022/10/17 05:58:19;;;;;;;15.93;11.18;;;;;;;;;;5002654;28;20122;-62
2022/10/17 06:00:44;;;;;;;19.48;11.40;;;;;;;;;;5010621;28;20389;-61
2022/10/17 06:03:10;;;;;;;16.23;11.30;;;;;;;;;;5010558;28;20061;-61
2022/10/17 06:05:35;;;;;;;15.90;10.25;;;;;;;;;;5011852;28;20452;-60
2022/10/17 06:08:01;;;;;;;13.50;11.83;;;;;;;;;;5009510;28;20085;-60
2022/10/17 06:10:26;;;;;;;15.02;11.65;;;;;;;;;;5011346;28;20501;-58
2022/10/17 06:12:51;;;;;;;13.07;11.63;;;;;;;;;;5010480;28;20033;-58
2022/10/17 06:15:16;;;;;;;11.35;9.98;;;;;;;;;;5010911;28;20440;-59
2022/10/17 06:17:41;;;;;;;13.88;11.68;;;;;;;;;;5010022;28;20042;-58
2022/10/17 06:20:07;;;;;;;18.50;11.40;;;;;;;;;;5011865;28;20061;-58
2022/10/17 06:22:32;;;;;;;10.00;8.98;;;;;;;;;;5009249;28;20505;-58
2022/10/17 06:24:57;;;;;;;12.70;9.00;;;;;;;;;;5006949;28;20018;-57
2022/10/17 06:27:22;;;;;;;16.20;9.57;;;;;;;;;;5009870;28;20468;-58
2022/10/17 06:29:47;;;;;;;15.33;11.20;;;;;;;;;;5011322;28;20021;-59
2022/10/17 06:32:13;;;;;;;12.67;9.57;;;;;;;;;;5009600;28;21045;-58
2022/10/17 06:34:38;;;;;;;13.25;9.93;;;;;;;;;;5010928;28;21286;-58
2022/10/17 06:37:03;;;;;;;17.93;10.20;;;;;;;;;;5008910;28;20148;-58
2022/10/17 06:39:32;;;;;;;13.82;9.48;;;;;;;;;;5011013;28;20433;-58
2022/10/17 06:41:58;;;;;;;11.05;9.13;;;;;;;;;;5008896;28;20040;-59
2022/10/17 06:44:27;;;;;;;14.05;9.63;;;;;;;;;;5004652;28;20105;-58
2022/10/17 06:46:52;;;;;;;11.73;8.48;;;;;;;;;;5001009;28;20041;-59
2022/10/17 06:49:17;;;;;;;9.95;8.73;;;;;;;;;;5011067;28;20037;-58
2022/10/17 06:51:42;;;;;;;13.20;8.68;;;;;;;;;;5008588;28;20033;-58
2022/10/17 06:54:07;;;;;;;14.30;8.20;;;;;;;;;;5010657;28;20416;-58
2022/10/17 06:56:33;;;;;;;19.00;9.77;;;;;;;;;;5008656;28;20025;-59
2022/10/17 06:58:58;;;;;;;11.98;8.57;;;;;;;;;;5010604;28;20026;-59
2022/10/17 07:01:23;;;;;;;12.87;8.03;;;;;;;;;;5009279;28;20073;-58
2022/10/17 07:03:49;;;;;;;11.90;9.05;;;;;;;;;;5008162;28;20468;-58
2022/10/17 07:06:14;;;;;;;11.93;9.15;;;;;;;;;;5010243;28;20570;-59
2022/10/17 07:08:43;;;;;;;19.63;8.20;;;;;;;;;;5008094;28;20271;-58
2022/10/17 07:11:09;;;;;;;19.08;9.63;;;;;;;;;;5010720;28;20463;-58
2022/10/17 07:13:34;;;;;;;8.65;7.82;;;;;;;;;;5008109;28;20040;-59
2022/10/17 07:16:00;;;;;;;14.67;8.90;;;;;;;;;;5006591;28;20121;-58
2022/10/17 07:18:25;;;;;;;17.60;8.82;;;;;;;;;;5008800;28;20484;-58
2022/10/17 07:20:51;;;;;;;13.60;8.68;;;;;;;;;;5010580;28;20033;-59
2022/10/17 07:23:17;;;;;;;21.90;10.52;;;;;;;;;;5009279;28;20041;-59
2022/10/17 07:25:42;;;;;;;17.70;8.25;;;;;;;;;;5013426;28;20014;-59
2022/10/17 07:28:07;;;;;;;11.68;7.40;;;;;;;;;;5009084;28;20038;-59
2022/10/17 07:30:32;;;;;;;21.47;9.17;;;;;;;;;;5010726;28;20508;-59
2022/10/17 07:32:57;;;;;;;12.03;8.07;;;;;;;;;;4999868;28;20036;-58
2022/10/17 07:35:22;;;;;;;9.35;7.60;;;;;;;;;;5008933;28;20073;-58
2022/10/17 07:37:48;;;;;;;9.75;7.63;;;;;;;;;;5009070;28;20033;-59
2022/10/17 07:40:13;;;;;;;9.25;7.60;;;;;;;;;;5010533;28;20033;-58
2022/10/17 07:42:38;;;;;;;13.67;8.40;;;;;;;;;;5008066;28;20505;-58
2022/10/17 07:45:03;;;;;;;12.90;7.43;;;;;;;;;;5010436;28;20026;-58
2022/10/17 07:47:29;;;;;;;7.68;6.97;;;;;;;;;;5008144;28;20465;-58
2022/10/17 07:49:55;;;;;;;11.85;7.65;;;;;;;;;;5009408;28;20399;-58
2022/10/17 07:52:20;;;;;;;10.10;7.47;;;;;;;;;;5008474;28;20061;-58
2022/10/17 07:54:45;;;;;;;9.85;6.82;;;;;;;;;;5010462;28;20025;-58
2022/10/17 07:57:10;;;;;;;8.97;6.50;;;;;;;;;;5009292;28;20038;-58
2022/10/17 07:59:36;;;;;;;11.07;6.10;;;;;;;;;;5009579;28;20105;-58
2022/10/17 08:02:01;;;;;;;9.80;6.55;;;;;;;;;;5002971;28;20038;-58
2022/10/17 08:04:26;;;;;;;17.48;9.95;;;;;;;;;;5009040;28;20102;-58
2022/10/17 08:06:52;;;;;;;8.77;6.67;;;;;;;;;;4998330;28;20033;-58
2022/10/17 08:09:17;;;;;;;8.53;6.63;;;;;;;;;;5011693;28;20026;-59
2022/10/17 08:11:42;;;;;;;8.57;6.07;;;;;;;;;;5007782;28;20452;-58
2022/10/17 08:14:08;;;;;;;26.10;8.50;;;;;;;;;;5009863;28;20045;-58
2022/10/17 08:16:33;;;;;;;13.15;7.35;;;;;;;;;;5007605;28;20022;-58
2022/10/17 08:18:58;;;;;;;15.13;5.63;;;;;;;;;;5011404;28;20017;-58
2022/10/17 08:21:23;;;;;;;13.38;5.95;;;;;;;;;;5005752;28;20057;-58
2022/10/17 08:23:48;;;;;;;17.10;6.72;;;;;;;;;;5015803;28;20010;-58
2022/10/17 08:26:16;;;;;;;13.15;5.70;;;;;;;;;;5017199;28;20477;-58
2022/10/17 08:28:41;;;;;;;11.93;7.68;;;;;;;;;;5018713;28;20054;-58
2022/10/17 08:31:07;;;;;;;7.15;6.20;;;;;;;;;;5011285;28;20189;-58
2022/10/17 08:33:33;;;;;;;13.48;7.03;;;;;;;;;;5014822;28;20042;-58
2022/10/17 08:35:59;;;;;;;11.95;8.20;;;;;;;;;;4995948;28;20566;-58
2022/10/17 08:38:24;;;;;;;9.57;6.50;;;;;;;;;;5010339;28;20041;-57
2022/10/17 08:40:49;;;;;;;8.20;5.50;;;;;;;;;;5007634;28;20026;-58
2022/10/17 08:43:23;;;;;;;6.63;5.97;;;;;;;;;;5010756;28;20040;-58
2022/10/17 08:45:54;;;;;;;11.95;4.90;;;;;;;;;;5011876;28;20050;-58
2022/10/17 08:48:22;;;;;;;13.13;5.45;;;;;;;;;;5011464;28;20056;-57
2022/10/17 08:50:52;;;;;;;11.98;6.97;;;;;;;;;;5011964;28;20049;-58
2022/10/17 08:53:20;;;;;;;20.25;6.38;;;;;;;;;;5011281;28;20096;-58
2022/10/17 08:55:49;;;;;;;13.65;6.38;;;;;;;;;;5012223;28;20033;-58
2022/10/17 08:58:22;;;;;;;11.18;6.13;;;;;;;;;;5005824;28;20069;-58
2022/10/17 09:00:50;;;;;;;9.65;5.63;;;;;;;;;;5011241;28;20446;-58
2022/10/17 09:03:25;;;;;;;8.13;6.60;;;;;;;;;;5011140;28;20543;-57
2022/10/17 09:05:59;;;;;;;8.95;5.82;;;;;;;;;;5006844;28;20018;-58
2022/10/17 09:08:37;;;;;;;11.20;6.97;;;;;;;;;;5003553;28;20057;-58
2022/10/17 09:11:08;;;;;;;7.40;5.53;;;;;;;;;;5012878;28;20037;-58
2022/10/17 09:13:52;;;;;;;11.52;6.85;;;;;;;;;;5010732;28;20037;-57
2022/10/17 09:16:17;;;;;;;11.27;7.13;;;;;;;;;;5013081;28;20165;-58
2022/10/17 09:18:46;;;;;;;10.57;6.43;;;;;;;;;;5011007;28;20557;-58
2022/10/17 09:21:16;;;;;;;8.23;6.22;;;;;;;;;;5012407;28;20476;-58
2022/10/17 09:23:47;;;;;;;8.77;6.53;;;;;;;;;;5010699;28;20061;-58
2022/10/17 09:26:13;;;;;;;9.75;5.60;;;;;;;;;;5004861;28;20073;-58
2022/10/17 09:28:38;;;;;;;12.85;7.75;;;;;;;;;;5009878;28;20053;-58
2022/10/17 09:31:20;;;;;;;13.98;7.45;;;;;;;;;;5012355;28;20017;-58
2022/10/17 09:33:46;;;;;;;12.40;7.45;;;;;;;;;;5010704;28;20049;-58
2022/10/17 09:36:13;;;;;;;8.63;6.47;;;;;;;;;;5012222;28;20050;-58
2022/10/17 09:38:40;;;;;;;11.43;6.07;;;;;;;;;;5010934;28;20065;-58
2022/10/17 09:41:10;;;;;;;11.88;5.65;;;;;;;;;;5012022;28;20164;-57
2022/10/17 09:43:35;;;;;;;8.60;5.28;;;;;;;;;;5010235;28;20108;-58
2022/10/17 09:46:07;;;;;;;11.68;5.80;;;;;;;;;;5010972;28;20489;-57
2022/10/17 09:48:41;;;;;;;8.07;6.03;;;;;;;;;;5010444;28;20030;-58
2022/10/17 09:51:06;;;;;;;7.70;6.85;;;;;;;;;;5012300;28;20109;-58
2022/10/17 09:53:33;;;;;;;13.63;5.63;;;;;;;;;;5010401;28;20050;-57
2022/10/17 09:56:01;;;;;;;15.15;5.47;;;;;;;;;;5011512;28;20105;-58
2022/10/17 09:58:43;;;;;;;8.55;5.15;;;;;;;;;;5007059;28;20038;-58
2022/10/17 10:01:22;;;;;;;8.25;6.53;;;;;;;;;;5010905;28;20049;-58
2022/10/17 10:03:48;;;;;;;9.13;6.13;;;;;;;;;;5009127;28;20563;-57
2022/10/17 10:06:17;;;;;;;8.35;5.72;;;;;;;;;;5010968;28;20072;-58
2022/10/17 10:08:50;;;;;;;4.90;4.32;;;;;;;;;;5006634;28;20044;-57
2022/10/17 10:11:16;;;;;;;11.05;6.43;;;;;;;;;;5011693;28;20018;-58
2022/10/17 10:13:42;;;;;;;7.20;6.50;;;;;;;;;;5010228;28;20042;-58
2022/10/17 10:16:39;;;;;;;6.53;5.88;;;;;;;;;;5011000;28;20096;-58
2022/10/17 10:19:18;;;;;;;6.43;4.93;;;;;;;;;;4997869;28;20038;-58
2022/10/17 10:21:53;;;;;;;12.85;7.60;;;;;;;;;;5006588;28;20121;-58
2022/10/17 10:24:19;;;;;;;12.63;7.38;;;;;;;;;;5024602;28;20056;-58
2022/10/17 10:26:48;;;;;;;7.38;5.55;;;;;;;;;;5009480;28;20493;-58
2022/10/17 10:29:21;;;;;;;13.13;7.95;;;;;;;;;;5009368;28;20652;-58
2022/10/17 10:31:47;;;;;;;12.25;7.80;;;;;;;;;;4997294;28;20112;-58
2022/10/17 10:34:21;;;;;;;10.50;6.32;;;;;;;;;;5000561;28;20450;-59
2022/10/17 10:37:00;;;;;;;12.75;7.28;;;;;;;;;;5006620;28;20034;-58
2022/10/17 10:39:25;;;;;;;9.15;7.95;;;;;;;;;;5009358;28;20101;-59
2022/10/17 10:41:50;;;;;;;13.75;10.13;;;;;;;;;;5005548;28;20173;-58
2022/10/17 10:44:16;;;;;;;10.77;9.53;;;;;;;;;;5010966;28;20053;-59
2022/10/17 10:46:41;;;;;;;11.07;9.85;;;;;;;;;;5001247;28;20498;-58
2022/10/17 10:49:26;;;;;;;13.83;9.90;;;;;;;;;;5002075;28;20388;-59
2022/10/17 10:51:51;;;;;;;10.15;8.95;;;;;;;;;;5008301;28;20453;-59
2022/10/17 10:54:28;;;;;;;14.02;9.30;;;;;;;;;;5011482;28;20393;-59
2022/10/17 10:56:56;;;;;;;10.97;9.23;;;;;;;;;;5009669;28;20112;-59
2022/10/17 10:59:37;;;;;;;20.48;12.18;;;;;;;;;;5010949;28;20033;-59
2022/10/17 11:02:25;;;;;;;11.95;8.57;;;;;;;;;;5006909;28;20117;-59
2022/10/17 11:04:54;;;;;;;11.98;9.90;;;;;;;;;;4996940;28;20022;-59
2022/10/17 11:07:40;;;;;;;12.75;11.07;;;;;;;;;;5008913;28;20049;-59
2022/10/17 11:10:16;;;;;;;13.18;10.38;;;;;;;;;;5009058;28;20034;-59
2022/10/17 11:12:51;;;;;;;20.27;11.70;;;;;;;;;;5007457;28;20061;-59
2022/10/17 11:15:32;;;;;;;15.07;10.05;;;;;;;;;;5010400;28;20087;-59
2022/10/17 11:18:26;;;;;;;15.20;12.35;;;;;;;;;;5008168;28;20038;-59
2022/10/17 11:20:57;;;;;;;15.68;14.13;;;;;;;;;;4997387;28;20049;-59
2022/10/17 11:23:41;;;;;;;20.42;17.38;;;;;;;;;;5007794;28;20038;-59
2022/10/17 11:26:10;;;;;;;21.95;15.02;;;;;;;;;;4989703;28;20026;-59
2022/10/17 11:28:35;;;;;;;16.10;12.98;;;;;;;;;;5000799;28;20121;-60
2022/10/17 11:31:10;;;;;;;16.80;13.55;;;;;;;;;;5009727;28;20104;-59
2022/10/17 11:33:44;;;;;;;19.63;15.00;;;;;;;;;;5007867;28;20501;-59
2022/10/17 11:36:09;;;;;;;18.65;13.27;;;;;;;;;;5009455;28;20057;-59
2022/10/17 11:38:38;;;;;;;20.73;16.50;;;;;;;;;;5007492;28;20042;-59
2022/10/17 11:41:05;;;;;;;16.17;14.18;;;;;;;;;;5007658;28;20026;-59
2022/10/17 11:43:44;;;;;;;15.25;13.13;;;;;;;;;;5008191;28;20121;-58
2022/10/17 11:46:11;;;;;;;16.00;14.38;;;;;;;;;;5010093;28;20112;-59
2022/10/17 11:48:40;;;;;;;23.85;14.90;;;;;;;;;;5007269;28;20494;-59
2022/10/17 11:51:10;;;;;;;17.35;15.35;;;;;;;;;;5009812;28;20041;-59
2022/10/17 11:53:46;;;;;;;22.30;13.30;;;;;;;;;;5010708;28;20073;-59
2022/10/17 11:56:13;;;;;;;18.88;12.60;;;;;;;;;;5012516;28;20034;-59
2022/10/17 11:59:01;;;;;;;23.15;13.43;;;;;;;;;;5012455;28;20125;-59
2022/10/17 12:01:36;;;;;;;17.73;13.63;;;;;;;;;;4998371;28;20489;-59
2022/10/17 12:04:01;;;;;;;17.95;13.68;;;;;;;;;;5013023;28;20021;-59
2022/10/17 12:06:34;;;;;;;23.50;15.50;;;;;;;;;;5012001;28;20029;-59
2022/10/17 12:09:18;;;;;;;17.60;14.90;;;;;;;;;;5013488;28;20010;-59
2022/10/17 12:11:55;;;;;;;18.00;15.20;;;;;;;;;;5009821;28;20088;-59
2022/10/17 12:14:32;;;;;;;16.45;13.77;;;;;;;;;;5009160;28;20046;-59
2022/10/17 12:16:57;;;;;;;31.83;15.45;;;;;;;;;;5012036;28;20543;-59
2022/10/17 12:19:24;;;;;;;18.73;14.85;;;;;;;;;;5012226;28;20026;-59
2022/10/17 12:21:53;;;;;;;19.25;12.60;;;;;;;;;;5011527;28;20061;-59
2022/10/17 12:24:30;;;;;;;13.68;12.30;;;;;;;;;;5013575;28;20076;-59
2022/10/17 12:26:55;;;;;;;34.92;15.15;;;;;;;;;;5011274;28;20054;-58
2022/10/17 12:29:26;;;;;;;23.35;14.82;;;;;;;;;;5012431;28;20049;-59
2022/10/17 12:31:51;;;;;;;20.13;14.07;;;;;;;;;;5010600;28;20033;-59
2022/10/17 12:34:18;;;;;;;15.13;13.47;;;;;;;;;;5011906;28;20128;-59
2022/10/17 12:36:43;;;;;;;25.17;15.65;;;;;;;;;;5010937;28;20113;-59
2022/10/17 12:39:12;;;;;;;15.50;14.10;;;;;;;;;;5012105;28;20125;-59
2022/10/17 12:41:37;;;;;;;16.00;13.73;;;;;;;;;;5009959;28;20465;-59
2022/10/17 12:44:11;;;;;;;23.93;15.23;;;;;;;;;;5012848;28;20052;-59
2022/10/17 12:46:49;;;;;;;23.13;16.58;;;;;;;;;;5011277;28;20481;-59
2022/10/17 12:49:14;;;;;;;;;;;;;;;;;;5013340;28;20520;-58
2022/10/17 12:52:04;;;;;;;18.02;14.88;;;;;;;;;;5011470;28;20340;-59
2022/10/17 12:54:29;;;;;;;24.00;14.63;;;;;;;;;;5011541;28;20025;-59
2022/10/17 12:56:54;;;;;;;16.73;14.68;;;;;;;;;;5011410;28;20516;-59
2022/10/17 12:59:21;;;;;;;18.63;13.40;;;;;;;;;;5013283;28;20083;-59
2022/10/17 13:01:48;;;;;;;23.83;15.82;;;;;;;;;;5007384;28;20068;-58
2022/10/17 13:04:14;;;;;;;17.20;13.95;;;;;;;;;;5023102;28;20036;-58
2022/10/17 13:06:43;;;;;;;19.08;16.30;;;;;;;;;;5010846;28;20022;-58
2022/10/17 13:09:27;;;;;;;21.48;16.30;;;;;;;;;;5011265;28;20030;-58
2022/10/17 13:11:53;;;;;;;20.27;14.77;;;;;;;;;;5011335;28;20578;-59
2022/10/17 13:14:19;;;;;;;21.23;14.75;;;;;;;;;;5012657;28;20050;-58
2022/10/17 13:16:52;;;;;;;22.70;16.13;;;;;;;;;;5009639;28;20044;-59
2022/10/17 13:19:18;;;;;;;26.42;16.88;;;;;;;;;;5012288;28;20030;-58
2022/10/17 13:21:49;;;;;;;25.73;16.75;;;;;;;;;;5010843;28;20045;-62
2022/10/17 13:24:18;;;;;;;31.08;17.92;;;;;;;;;;5010786;28;20033;-58
2022/10/17 13:26:44;;;;;;;23.20;17.73;;;;;;;;;;5010230;28;20509;-59
2022/10/17 13:29:10;;;;;;;23.33;17.13;;;;;;;;;;5012528;28;20033;-59
2022/10/17 13:31:36;;;;;;;23.20;18.02;;;;;;;;;;5008898;28;20140;-59
2022/10/17 13:34:03;;;;;;;23.58;17.58;;;;;;;;;;5011827;28;20018;-58
2022/10/17 13:36:30;;;;;;;21.48;17.30;;;;;;;;;;5010430;28;20029;-59
2022/10/17 13:38:56;;;;;;;27.27;17.55;;;;;;;;;;5010003;28;20049;-59
2022/10/17 13:41:24;;;;;;;26.90;19.75;;;;;;;;;;5010907;28;20033;-59
2022/10/17 13:43:50;;;;;;;27.48;18.85;;;;;;;;;;5010694;28;20080;-59
2022/10/17 13:46:19;;;;;;;30.60;17.60;;;;;;;;;;5009892;28;20459;-59
2022/10/17 13:48:44;;;;;;;22.30;17.92;;;;;;;;;;5010667;28;20034;-59
2022/10/17 13:51:10;;;;;;;23.67;16.88;;;;;;;;;;5010770;28;20349;-59
2022/10/17 13:53:38;;;;;;;18.73;16.88;;;;;;;;;;5021054;28;20226;-59
2022/10/17 13:56:24;;;;;;;25.00;17.10;;;;;;;;;;5011913;28;20022;-59
2022/10/17 13:58:50;;;;;;;20.48;15.02;;;;;;;;;;5009808;28;20084;-59
2022/10/17 14:01:16;;;;;;;21.45;16.20;;;;;;;;;;5009893;28;20190;-59
2022/10/17 14:03:42;;;;;;;19.45;16.73;;;;;;;;;;5009751;28;20040;-59
2022/10/17 14:06:12;;;;;;;18.92;16.98;;;;;;;;;;5010885;28;20022;-59
2022/10/17 14:08:38;;;;;;;22.35;16.52;;;;;;;;;;5008463;28;20029;-59
2022/10/17 14:11:12;;;;;;;29.75;19.05;;;;;;;;;;5011546;28;20044;-59
2022/10/17 14:13:37;;;;;;;24.67;17.33;;;;;;;;;;5009767;28;20405;-59
2022/10/17 14:16:03;;;;;;;19.77;16.40;;;;;;;;;;5009038;28;20028;-59
2022/10/17 14:18:35;;;;;;;20.73;18.27;;;;;;;;;;5009528;28;20038;-59
2022/10/17 14:21:00;;;;;;;28.15;18.15;;;;;;;;;;5011519;28;20386;-59
2022/10/17 14:23:29;;;;;;;28.50;17.00;;;;;;;;;;5008346;28;20050;-59
2022/10/17 14:26:14;;;;;;;23.92;16.00;;;;;;;;;;5011136;28;20108;-59
2022/10/17 14:28:41;;;;;;;28.00;18.15;;;;;;;;;;5005731;28;20034;-59
2022/10/17 14:31:24;;;;;;;22.10;18.27;;;;;;;;;;5010221;28;20513;-59